Miami, FL

8:53 AM EDT on July 27, 2016 (GMT -0400)
JA Richmond West | | Change Station

Elev 7 ft 25.61 °N, 80.43 °W | Updated 23 seconds ago

Partly Cloudy
Partly Cloudy
91.6 °F
Feels Like 107 °F
N
4.6
Wind Variable Wind from ESE
Gusts 4.6 mph

Today
High -- | Low -- °F
--% Chance of Precip.
Yesterday
High -- | Low -- °F
Precip. -- in
Pressure 30.08 in
Visibility 10.0 miles
Clouds Few 2200 ft
Few 7000 ft
Heat Index 107 °F
Dew Point 78 °F
Humidity 65%
Rainfall 0.00 in
Snow Depth Not available.
6:46 AM 8:09 PM
Last Quarter, 43% visible
METAR KTMB 271153Z 03003KT 10SM FEW022 FEW070 28/24 A3008 RMK AO2 SLP184 70002 T02780244 10278 20250 53017
Pressure 30.08 in
Visibility 10.0 miles
Clouds Few 2200 ft
Few 7000 ft
Heat Index 107 °F
Dew Point 78 °F
Humidity 65%
Rainfall 0.00 in
Snow Depth Not available.
6:46 AM 8:09 PM
Last Quarter, 43% visible
METAR KTMB 271153Z 03003KT 10SM FEW022 FEW070 28/24 A3008 RMK AO2 SLP184 70002 T02780244 10278 20250 53017

10-Day Weather Forecast

Almanac

Astronomy

Jul. 27, 2016 Rise Set
Actual Time
Civil Twilight
Nautical Twilight
Astronomical Twilight
Moon
Length of Visible Light
Length of Day
Tomorrow will be .
, % of the Moon is Illuminated

Today's Extremes

State Highs State Lows

Community

WunderPhotos

Upload Photos

1,927,841 photos uploaded!

WunderBlog® & News

Nearby

Air Quality

  Air Quality AQ Index Pollutant
Not available.

Snow Depth

Station Depth Elevation

Earthquake Activity

City Distance Mag. Time & Date
Minimum magnitude displayed is 2.5.

Coastal Water Temperatures

Place Temperature

Stations

Nearby Weather Stations

Station Location Temp. Windchill Dew Point Humidity Wind Precip. Elev Updated Type
                   

Watches & Warnings

There are currently no watches in effect.